sensor_id;sensor_type;location;lat;lon;timestamp;temperature;humidity
10885;DHT22;5495;53.252;10.390;2023-05-07T00:00:42;10.60;99.90
10885;DHT22;5495;53.252;10.390;2023-05-07T00:03:09;10.60;99.90
10885;DHT22;5495;53.252;10.390;2023-05-07T00:05:36;10.60;99.90
10885;DHT22;5495;53.252;10.390;2023-05-07T00:08:04;10.50;99.90
10885;DHT22;5495;53.252;10.390;2023-05-07T00:10:34;10.50;99.90
10885;DHT22;5495;53.252;10.390;2023-05-07T00:13:04;10.50;99.90
10885;DHT22;5495;53.252;10.390;2023-05-07T00:15:31;10.50;99.90
10885;DHT22;5495;53.252;10.390;2023-05-07T00:17:59;10.40;99.90
10885;DHT22;5495;53.252;10.390;2023-05-07T00:20:26;10.40;99.90
10885;DHT22;5495;53.252;10.390;2023-05-07T00:22:53;10.50;99.90
10885;DHT22;5495;53.252;10.390;2023-05-07T00:25:20;10.50;99.90
10885;DHT22;5495;53.252;10.390;2023-05-07T00:27:47;10.50;99.90
10885;DHT22;5495;53.252;10.390;2023-05-07T00:30:14;10.60;99.90
10885;DHT22;5495;53.252;10.390;2023-05-07T00:32:41;10.60;99.90
10885;DHT22;5495;53.252;10.390;2023-05-07T00:35:12;10.50;99.90
10885;DHT22;5495;53.252;10.390;2023-05-07T00:37:39;10.50;99.90
10885;DHT22;5495;53.252;10.390;2023-05-07T00:40:07;10.60;99.90
10885;DHT22;5495;53.252;10.390;2023-05-07T00:42:34;10.60;99.90
10885;DHT22;5495;53.252;10.390;2023-05-07T00:45:01;10.60;99.90
10885;DHT22;5495;53.252;10.390;2023-05-07T00:47:28;10.60;99.90
10885;DHT22;5495;53.252;10.390;2023-05-07T00:49:57;10.70;99.90
10885;DHT22;5495;53.252;10.390;2023-05-07T00:52:26;10.60;99.90
10885;DHT22;5495;53.252;10.390;2023-05-07T00:54:53;10.60;99.90
10885;DHT22;5495;53.252;10.390;2023-05-07T00:57:21;10.60;99.90
10885;DHT22;5495;53.252;10.390;2023-05-07T00:59:51;10.50;99.90
10885;DHT22;5495;53.252;10.390;2023-05-07T01:02:18;10.50;99.90
10885;DHT22;5495;53.252;10.390;2023-05-07T01:04:45;10.40;99.90
10885;DHT22;5495;53.252;10.390;2023-05-07T01:07:12;10.40;99.90
10885;DHT22;5495;53.252;10.390;2023-05-07T01:09:41;10.40;99.90
10885;DHT22;5495;53.252;10.390;2023-05-07T01:12:08;10.40;99.90
10885;DHT22;5495;53.252;10.390;2023-05-07T01:14:35;10.40;99.90
10885;DHT22;5495;53.252;10.390;2023-05-07T01:17:02;10.50;99.90
10885;DHT22;5495;53.252;10.390;2023-05-07T01:19:30;10.60;99.90
10885;DHT22;5495;53.252;10.390;2023-05-07T01:22:02;10.50;99.90
10885;DHT22;5495;53.252;10.390;2023-05-07T01:24:32;10.60;99.90
10885;DHT22;5495;53.252;10.390;2023-05-07T01:26:59;10.60;99.90
10885;DHT22;5495;53.252;10.390;2023-05-07T01:29:28;10.50;99.90
10885;DHT22;5495;53.252;10.390;2023-05-07T01:31:57;10.50;99.90
10885;DHT22;5495;53.252;10.390;2023-05-07T01:34:25;10.50;99.90
10885;DHT22;5495;53.252;10.390;2023-05-07T01:36:54;10.50;99.90
10885;DHT22;5495;53.252;10.390;2023-05-07T01:39:24;10.40;99.90
10885;DHT22;5495;53.252;10.390;2023-05-07T01:41:53;10.40;99.90
10885;DHT22;5495;53.252;10.390;2023-05-07T01:44:21;10.50;99.90
10885;DHT22;5495;53.252;10.390;2023-05-07T01:46:49;10.50;99.90
10885;DHT22;5495;53.252;10.390;2023-05-07T01:49:17;10.50;99.90
10885;DHT22;5495;53.252;10.390;2023-05-07T01:51:44;10.50;99.90
10885;DHT22;5495;53.252;10.390;2023-05-07T01:54:11;10.50;99.90
10885;DHT22;5495;53.252;10.390;2023-05-07T01:56:53;10.60;99.90
10885;DHT22;5495;53.252;10.390;2023-05-07T01:59:20;10.50;99.90
10885;DHT22;5495;53.252;10.390;2023-05-07T02:01:47;10.60;99.90
10885;DHT22;5495;53.252;10.390;2023-05-07T02:04:14;10.60;99.90
10885;DHT22;5495;53.252;10.390;2023-05-07T02:06:41;10.60;99.90
10885;DHT22;5495;53.252;10.390;2023-05-07T02:09:08;10.50;99.90
10885;DHT22;5495;53.252;10.390;2023-05-07T02:11:35;10.50;99.90
10885;DHT22;5495;53.252;10.390;2023-05-07T02:14:03;10.50;99.90
10885;DHT22;5495;53.252;10.390;2023-05-07T02:16:31;10.50;99.90
10885;DHT22;5495;53.252;10.390;2023-05-07T02:18:57;10.50;99.90
10885;DHT22;5495;53.252;10.390;2023-05-07T02:21:25;10.60;99.90
10885;DHT22;5495;53.252;10.390;2023-05-07T02:23:51;10.60;99.90
10885;DHT22;5495;53.252;10.390;2023-05-07T02:26:19;10.60;99.90
10885;DHT22;5495;53.252;10.390;2023-05-07T02:28:47;10.60;99.90
10885;DHT22;5495;53.252;10.390;2023-05-07T02:31:15;10.60;99.90
10885;DHT22;5495;53.252;10.390;2023-05-07T02:33:42;10.60;99.90
10885;DHT22;5495;53.252;10.390;2023-05-07T02:36:12;10.60;99.90
10885;DHT22;5495;53.252;10.390;2023-05-07T02:38:39;10.60;99.90
10885;DHT22;5495;53.252;10.390;2023-05-07T02:41:06;10.60;99.90
10885;DHT22;5495;53.252;10.390;2023-05-07T02:43:33;10.60;99.90
10885;DHT22;5495;53.252;10.390;2023-05-07T02:46:03;10.60;99.90
10885;DHT22;5495;53.252;10.390;2023-05-07T02:48:32;10.60;99.90
10885;DHT22;5495;53.252;10.390;2023-05-07T02:51:00;10.50;99.90
10885;DHT22;5495;53.252;10.390;2023-05-07T02:53:28;10.50;99.90
10885;DHT22;5495;53.252;10.390;2023-05-07T02:55:56;10.50;99.90
10885;DHT22;5495;53.252;10.390;2023-05-07T02:58:23;10.40;99.90
10885;DHT22;5495;53.252;10.390;2023-05-07T03:00:51;10.40;99.90
10885;DHT22;5495;53.252;10.390;2023-05-07T03:03:18;10.40;99.90
10885;DHT22;5495;53.252;10.390;2023-05-07T03:05:46;10.50;99.90
10885;DHT22;5495;53.252;10.390;2023-05-07T03:08:13;10.50;99.90
10885;DHT22;5495;53.252;10.390;2023-05-07T03:10:40;10.40;99.90
10885;DHT22;5495;53.252;10.390;2023-05-07T03:13:06;10.40;99.90
10885;DHT22;5495;53.252;10.390;2023-05-07T03:15:33;10.40;99.90
10885;DHT22;5495;53.252;10.390;2023-05-07T03:18:00;10.50;99.90
10885;DHT22;5495;53.252;10.390;2023-05-07T03:20:27;10.50;99.90
10885;DHT22;5495;53.252;10.390;2023-05-07T03:22:57;10.40;99.90
10885;DHT22;5495;53.252;10.390;2023-05-07T03:25:24;10.40;99.90
10885;DHT22;5495;53.252;10.390;2023-05-07T03:27:51;10.50;99.90
10885;DHT22;5495;53.252;10.390;2023-05-07T03:30:18;10.50;99.90
10885;DHT22;5495;53.252;10.390;2023-05-07T03:32:45;10.50;99.90
10885;DHT22;5495;53.252;10.390;2023-05-07T03:35:13;10.50;99.90
10885;DHT22;5495;53.252;10.390;2023-05-07T03:37:42;10.50;99.90
10885;DHT22;5495;53.252;10.390;2023-05-07T03:40:11;10.50;99.90
10885;DHT22;5495;53.252;10.390;2023-05-07T03:42:40;10.50;99.90
10885;DHT22;5495;53.252;10.390;2023-05-07T03:45:11;10.50;99.90
10885;DHT22;5495;53.252;10.390;2023-05-07T03:47:39;10.50;99.90
10885;DHT22;5495;53.252;10.390;2023-05-07T03:50:08;10.50;99.90
10885;DHT22;5495;53.252;10.390;2023-05-07T03:52:36;10.60;99.90
10885;DHT22;5495;53.252;10.390;2023-05-07T03:55:03;10.50;99.90
10885;DHT22;5495;53.252;10.390;2023-05-07T03:57:32;10.50;99.90
10885;DHT22;5495;53.252;10.390;2023-05-07T03:59:59;11.20;99.90
10885;DHT22;5495;53.252;10.390;2023-05-07T04:02:27;10.50;99.90
10885;DHT22;5495;53.252;10.390;2023-05-07T04:04:54;10.50;99.90
10885;DHT22;5495;53.252;10.390;2023-05-07T04:07:21;10.40;99.90
10885;DHT22;5495;53.252;10.390;2023-05-07T04:09:48;10.60;99.90
10885;DHT22;5495;53.252;10.390;2023-05-07T04:12:15;10.40;99.90
10885;DHT22;5495;53.252;10.390;2023-05-07T04:14:44;10.40;99.90
10885;DHT22;5495;53.252;10.390;2023-05-07T04:17:11;10.50;99.90
10885;DHT22;5495;53.252;10.390;2023-05-07T04:19:38;10.40;99.90
10885;DHT22;5495;53.252;10.390;2023-05-07T04:22:04;10.40;99.90
10885;DHT22;5495;53.252;10.390;2023-05-07T04:24:31;10.40;99.90
10885;DHT22;5495;53.252;10.390;2023-05-07T04:26:59;10.40;99.90
10885;DHT22;5495;53.252;10.390;2023-05-07T04:29:25;10.80;99.90
10885;DHT22;5495;53.252;10.390;2023-05-07T04:31:54;10.40;99.90
10885;DHT22;5495;53.252;10.390;2023-05-07T04:34:21;10.50;99.90
10885;DHT22;5495;53.252;10.390;2023-05-07T04:36:48;10.50;99.90
10885;DHT22;5495;53.252;10.390;2023-05-07T04:39:15;11.60;99.90
10885;DHT22;5495;53.252;10.390;2023-05-07T04:41:42;10.40;99.90
10885;DHT22;5495;53.252;10.390;2023-05-07T04:44:09;10.40;99.90
10885;DHT22;5495;53.252;10.390;2023-05-07T04:46:36;10.40;99.90
10885;DHT22;5495;53.252;10.390;2023-05-07T04:49:04;10.40;99.90
10885;DHT22;5495;53.252;10.390;2023-05-07T04:51:31;10.50;99.90
10885;DHT22;5495;53.252;10.390;2023-05-07T04:53:58;10.60;99.90
10885;DHT22;5495;53.252;10.390;2023-05-07T04:56:27;11.20;99.90
10885;DHT22;5495;53.252;10.390;2023-05-07T04:58:54;10.50;99.90
10885;DHT22;5495;53.252;10.390;2023-05-07T05:01:21;10.60;99.90
10885;DHT22;5495;53.252;10.390;2023-05-07T05:03:48;10.50;99.90
10885;DHT22;5495;53.252;10.390;2023-05-07T05:06:16;10.40;99.90
10885;DHT22;5495;53.252;10.390;2023-05-07T05:08:43;10.50;99.90
10885;DHT22;5495;53.252;10.390;2023-05-07T05:11:10;10.50;99.90
10885;DHT22;5495;53.252;10.390;2023-05-07T05:13:36;10.50;99.90
10885;DHT22;5495;53.252;10.390;2023-05-07T05:16:04;10.60;99.90
10885;DHT22;5495;53.252;10.390;2023-05-07T05:18:31;10.60;99.90
10885;DHT22;5495;53.252;10.390;2023-05-07T05:20:58;10.60;99.90
10885;DHT22;5495;53.252;10.390;2023-05-07T05:23:26;10.50;99.90
10885;DHT22;5495;53.252;10.390;2023-05-07T05:25:55;10.60;99.90
10885;DHT22;5495;53.252;10.390;2023-05-07T05:28:23;10.50;99.90
10885;DHT22;5495;53.252;10.390;2023-05-07T05:30:50;10.50;99.90
10885;DHT22;5495;53.252;10.390;2023-05-07T05:33:17;10.60;99.90
10885;DHT22;5495;53.252;10.390;2023-05-07T05:35:44;10.80;99.90
10885;DHT22;5495;53.252;10.390;2023-05-07T05:38:11;10.60;99.90
10885;DHT22;5495;53.252;10.390;2023-05-07T05:40:39;10.70;99.90
10885;DHT22;5495;53.252;10.390;2023-05-07T05:43:08;10.60;99.90
10885;DHT22;5495;53.252;10.390;2023-05-07T05:45:35;10.60;99.90
10885;DHT22;5495;53.252;10.390;2023-05-07T05:48:02;10.70;99.90
10885;DHT22;5495;53.252;10.390;2023-05-07T05:50:29;10.60;99.90
10885;DHT22;5495;53.252;10.390;2023-05-07T05:52:58;10.60;99.90
10885;DHT22;5495;53.252;10.390;2023-05-07T05:55:25;10.70;99.90
10885;DHT22;5495;53.252;10.390;2023-05-07T05:57:53;10.80;99.90
10885;DHT22;5495;53.252;10.390;2023-05-07T06:00:20;10.70;99.90
10885;DHT22;5495;53.252;10.390;2023-05-07T06:02:48;10.70;99.90
10885;DHT22;5495;53.252;10.390;2023-05-07T06:05:15;10.70;99.90
10885;DHT22;5495;53.252;10.390;2023-05-07T06:07:42;10.70;99.90
10885;DHT22;5495;53.252;10.390;2023-05-07T06:10:09;10.70;99.90
10885;DHT22;5495;53.252;10.390;2023-05-07T06:12:36;10.70;99.90
10885;DHT22;5495;53.252;10.390;2023-05-07T06:15:05;10.70;99.90
10885;DHT22;5495;53.252;10.390;2023-05-07T06:17:32;10.60;99.90
10885;DHT22;5495;53.252;10.390;2023-05-07T06:19:59;10.70;99.90
10885;DHT22;5495;53.252;10.390;2023-05-07T06:22:26;10.60;99.90
10885;DHT22;5495;53.252;10.390;2023-05-07T06:24:52;10.70;99.90
10885;DHT22;5495;53.252;10.390;2023-05-07T06:27:19;10.80;99.90
10885;DHT22;5495;53.252;10.390;2023-05-07T06:29:48;10.80;99.90
10885;DHT22;5495;53.252;10.390;2023-05-07T06:32:16;11.50;99.90
10885;DHT22;5495;53.252;10.390;2023-05-07T06:34:43;10.80;99.90
10885;DHT22;5495;53.252;10.390;2023-05-07T06:37:10;10.80;99.90
10885;DHT22;5495;53.252;10.390;2023-05-07T06:39:37;10.90;99.90
10885;DHT22;5495;53.252;10.390;2023-05-07T06:42:04;10.90;99.90
10885;DHT22;5495;53.252;10.390;2023-05-07T06:44:31;10.90;99.90
10885;DHT22;5495;53.252;10.390;2023-05-07T06:46:58;10.90;99.90
10885;DHT22;5495;53.252;10.390;2023-05-07T06:49:26;11.60;99.90
10885;DHT22;5495;53.252;10.390;2023-05-07T06:51:53;10.90;99.90
10885;DHT22;5495;53.252;10.390;2023-05-07T06:54:21;10.90;99.90
10885;DHT22;5495;53.252;10.390;2023-05-07T06:56:48;10.90;99.90
10885;DHT22;5495;53.252;10.390;2023-05-07T06:59:16;10.90;99.90
10885;DHT22;5495;53.252;10.390;2023-05-07T07:01:42;10.90;99.90
10885;DHT22;5495;53.252;10.390;2023-05-07T07:04:09;10.90;99.90
10885;DHT22;5495;53.252;10.390;2023-05-07T07:06:37;10.90;99.90
10885;DHT22;5495;53.252;10.390;2023-05-07T07:09:04;10.90;99.90
10885;DHT22;5495;53.252;10.390;2023-05-07T07:11:31;10.90;99.90
10885;DHT22;5495;53.252;10.390;2023-05-07T07:13:58;10.90;99.90
10885;DHT22;5495;53.252;10.390;2023-05-07T07:16:25;11.00;99.90
10885;DHT22;5495;53.252;10.390;2023-05-07T07:18:52;11.00;99.90
10885;DHT22;5495;53.252;10.390;2023-05-07T07:21:19;11.10;99.90
10885;DHT22;5495;53.252;10.390;2023-05-07T07:23:47;11.10;99.90
10885;DHT22;5495;53.252;10.390;2023-05-07T07:26:14;11.10;99.90
10885;DHT22;5495;53.252;10.390;2023-05-07T07:28:44;11.10;99.90
10885;DHT22;5495;53.252;10.390;2023-05-07T07:31:11;11.10;99.90
10885;DHT22;5495;53.252;10.390;2023-05-07T07:33:39;11.20;99.90
10885;DHT22;5495;53.252;10.390;2023-05-07T07:36:06;11.20;99.90
10885;DHT22;5495;53.252;10.390;2023-05-07T07:38:33;11.20;99.90
10885;DHT22;5495;53.252;10.390;2023-05-07T07:41:03;11.20;99.90
10885;DHT22;5495;53.252;10.390;2023-05-07T07:43:32;11.10;99.90
10885;DHT22;5495;53.252;10.390;2023-05-07T07:46:01;11.20;99.90
10885;DHT22;5495;53.252;10.390;2023-05-07T07:48:28;11.20;99.90
10885;DHT22;5495;53.252;10.390;2023-05-07T07:50:55;11.10;99.90
10885;DHT22;5495;53.252;10.390;2023-05-07T07:53:21;11.20;99.90
10885;DHT22;5495;53.252;10.390;2023-05-07T07:55:49;11.20;99.90
10885;DHT22;5495;53.252;10.390;2023-05-07T07:58:17;11.20;99.90
10885;DHT22;5495;53.252;10.390;2023-05-07T08:00:44;11.20;99.90
10885;DHT22;5495;53.252;10.390;2023-05-07T08:03:10;11.20;99.90
10885;DHT22;5495;53.252;10.390;2023-05-07T08:05:37;11.30;99.90
10885;DHT22;5495;53.252;10.390;2023-05-07T08:08:05;11.20;99.90
10885;DHT22;5495;53.252;10.390;2023-05-07T08:10:35;11.20;99.90
10885;DHT22;5495;53.252;10.390;2023-05-07T08:13:05;11.30;99.90
10885;DHT22;5495;53.252;10.390;2023-05-07T08:15:34;11.30;99.90
10885;DHT22;5495;53.252;10.390;2023-05-07T08:18:02;11.30;99.90
10885;DHT22;5495;53.252;10.390;2023-05-07T08:20:29;11.30;99.90
10885;DHT22;5495;53.252;10.390;2023-05-07T08:23:04;11.40;99.90
10885;DHT22;5495;53.252;10.390;2023-05-07T08:25:32;11.40;99.90
10885;DHT22;5495;53.252;10.390;2023-05-07T08:27:59;11.30;99.90
10885;DHT22;5495;53.252;10.390;2023-05-07T08:30:26;11.40;99.90
10885;DHT22;5495;53.252;10.390;2023-05-07T08:32:54;11.40;99.90
10885;DHT22;5495;53.252;10.390;2023-05-07T08:35:21;12.60;99.90
10885;DHT22;5495;53.252;10.390;2023-05-07T08:37:48;11.40;99.90
10885;DHT22;5495;53.252;10.390;2023-05-07T08:40:15;11.40;99.90
10885;DHT22;5495;53.252;10.390;2023-05-07T08:42:43;11.50;99.90
10885;DHT22;5495;53.252;10.390;2023-05-07T08:45:11;11.50;99.90
10885;DHT22;5495;53.252;10.390;2023-05-07T08:47:43;11.50;99.90
10885;DHT22;5495;53.252;10.390;2023-05-07T08:50:12;11.50;99.90
10885;DHT22;5495;53.252;10.390;2023-05-07T08:52:39;11.50;99.90
10885;DHT22;5495;53.252;10.390;2023-05-07T08:55:07;11.50;99.90
10885;DHT22;5495;53.252;10.390;2023-05-07T08:57:35;11.60;99.90
10885;DHT22;5495;53.252;10.390;2023-05-07T09:00:02;11.50;99.90
10885;DHT22;5495;53.252;10.390;2023-05-07T09:02:29;11.70;99.90
10885;DHT22;5495;53.252;10.390;2023-05-07T09:04:56;11.50;99.90
10885;DHT22;5495;53.252;10.390;2023-05-07T09:07:25;11.50;99.90
10885;DHT22;5495;53.252;10.390;2023-05-07T09:09:52;11.60;99.90
10885;DHT22;5495;53.252;10.390;2023-05-07T09:12:21;11.60;99.90
10885;DHT22;5495;53.252;10.390;2023-05-07T09:14:48;11.70;99.90
10885;DHT22;5495;53.252;10.390;2023-05-07T09:17:15;11.60;99.90
10885;DHT22;5495;53.252;10.390;2023-05-07T09:19:43;11.60;99.90
10885;DHT22;5495;53.252;10.390;2023-05-07T09:22:10;11.60;99.90
10885;DHT22;5495;53.252;10.390;2023-05-07T09:24:39;11.70;99.90
10885;DHT22;5495;53.252;10.390;2023-05-07T09:27:06;11.70;99.90
10885;DHT22;5495;53.252;10.390;2023-05-07T09:29:35;11.80;99.90
10885;DHT22;5495;53.252;10.390;2023-05-07T09:32:02;11.80;99.90
10885;DHT22;5495;53.252;10.390;2023-05-07T09:34:29;11.80;99.90
10885;DHT22;5495;53.252;10.390;2023-05-07T09:36:56;11.80;99.90
10885;DHT22;5495;53.252;10.390;2023-05-07T09:39:24;11.80;99.90
10885;DHT22;5495;53.252;10.390;2023-05-07T09:41:52;11.90;99.90
10885;DHT22;5495;53.252;10.390;2023-05-07T09:44:20;12.10;99.90
10885;DHT22;5495;53.252;10.390;2023-05-07T09:46:52;11.90;99.90
10885;DHT22;5495;53.252;10.390;2023-05-07T09:49:22;11.90;99.90
10885;DHT22;5495;53.252;10.390;2023-05-07T09:51:51;11.90;99.90
10885;DHT22;5495;53.252;10.390;2023-05-07T09:54:19;12.30;99.90
10885;DHT22;5495;53.252;10.390;2023-05-07T09:56:49;11.90;99.90
10885;DHT22;5495;53.252;10.390;2023-05-07T09:59:20;11.90;99.90
10885;DHT22;5495;53.252;10.390;2023-05-07T10:01:48;11.90;99.90
10885;DHT22;5495;53.252;10.390;2023-05-07T10:04:16;11.90;99.90
10885;DHT22;5495;53.252;10.390;2023-05-07T10:06:44;12.00;99.90
10885;DHT22;5495;53.252;10.390;2023-05-07T10:09:12;12.00;99.90
10885;DHT22;5495;53.252;10.390;2023-05-07T10:11:41;12.00;99.90
10885;DHT22;5495;53.252;10.390;2023-05-07T10:14:09;12.00;99.90
10885;DHT22;5495;53.252;10.390;2023-05-07T10:16:38;12.00;99.90
10885;DHT22;5495;53.252;10.390;2023-05-07T10:19:06;12.00;99.90
10885;DHT22;5495;53.252;10.390;2023-05-07T10:21:36;12.00;99.90
10885;DHT22;5495;53.252;10.390;2023-05-07T10:24:05;12.10;99.90
10885;DHT22;5495;53.252;10.390;2023-05-07T10:26:35;12.10;99.90
10885;DHT22;5495;53.252;10.390;2023-05-07T10:29:12;12.10;99.90
10885;DHT22;5495;53.252;10.390;2023-05-07T10:32:03;12.10;99.90
10885;DHT22;5495;53.252;10.390;2023-05-07T10:34:37;12.20;99.90
10885;DHT22;5495;53.252;10.390;2023-05-07T10:37:05;12.10;99.90
10885;DHT22;5495;53.252;10.390;2023-05-07T10:39:34;12.10;99.90
10885;DHT22;5495;53.252;10.390;2023-05-07T10:42:08;12.10;99.90
10885;DHT22;5495;53.252;10.390;2023-05-07T10:44:35;12.10;99.90
10885;DHT22;5495;53.252;10.390;2023-05-07T10:47:12;12.20;99.90
10885;DHT22;5495;53.252;10.390;2023-05-07T10:52:39;12.20;99.90
10885;DHT22;5495;53.252;10.390;2023-05-07T10:55:19;12.20;99.90
10885;DHT22;5495;53.252;10.390;2023-05-07T10:57:47;12.30;99.90
10885;DHT22;5495;53.252;10.390;2023-05-07T11:00:41;12.30;99.90
10885;DHT22;5495;53.252;10.390;2023-05-07T11:03:10;12.60;99.90
10885;DHT22;5495;53.252;10.390;2023-05-07T11:05:38;12.30;99.90
10885;DHT22;5495;53.252;10.390;2023-05-07T11:08:05;12.40;99.90
10885;DHT22;5495;53.252;10.390;2023-05-07T11:10:49;12.40;99.90
10885;DHT22;5495;53.252;10.390;2023-05-07T11:13:18;12.50;99.90
10885;DHT22;5495;53.252;10.390;2023-05-07T11:15:46;12.60;99.90
10885;DHT22;5495;53.252;10.390;2023-05-07T11:18:17;12.60;99.90
10885;DHT22;5495;53.252;10.390;2023-05-07T11:20:57;12.60;99.90
10885;DHT22;5495;53.252;10.390;2023-05-07T11:23:56;12.70;99.90
10885;DHT22;5495;53.252;10.390;2023-05-07T11:26:24;12.70;99.90
10885;DHT22;5495;53.252;10.390;2023-05-07T11:28:52;12.80;99.90
10885;DHT22;5495;53.252;10.390;2023-05-07T11:31:27;12.80;99.90
10885;DHT22;5495;53.252;10.390;2023-05-07T11:33:57;12.90;99.90
10885;DHT22;5495;53.252;10.390;2023-05-07T11:36:24;13.00;99.90
10885;DHT22;5495;53.252;10.390;2023-05-07T11:38:52;13.00;99.90
10885;DHT22;5495;53.252;10.390;2023-05-07T11:41:19;13.50;99.90
10885;DHT22;5495;53.252;10.390;2023-05-07T11:43:58;13.20;99.90
10885;DHT22;5495;53.252;10.390;2023-05-07T11:46:26;13.30;99.90
10885;DHT22;5495;53.252;10.390;2023-05-07T11:48:53;13.20;99.90
10885;DHT22;5495;53.252;10.390;2023-05-07T11:51:25;13.30;99.90
10885;DHT22;5495;53.252;10.390;2023-05-07T11:53:53;13.40;99.90
10885;DHT22;5495;53.252;10.390;2023-05-07T11:56:20;13.30;99.90
10885;DHT22;5495;53.252;10.390;2023-05-07T11:58:47;13.60;99.90
10885;DHT22;5495;53.252;10.390;2023-05-07T12:01:15;13.30;99.90
10885;DHT22;5495;53.252;10.390;2023-05-07T12:03:45;13.30;99.90
10885;DHT22;5495;53.252;10.390;2023-05-07T12:06:14;13.20;99.90
10885;DHT22;5495;53.252;10.390;2023-05-07T12:08:43;13.20;99.90
10885;DHT22;5495;53.252;10.390;2023-05-07T12:11:13;13.30;99.90
10885;DHT22;5495;53.252;10.390;2023-05-07T12:13:41;13.40;99.90
10885;DHT22;5495;53.252;10.390;2023-05-07T12:16:08;13.40;99.90
10885;DHT22;5495;53.252;10.390;2023-05-07T12:18:36;13.40;99.90
10885;DHT22;5495;53.252;10.390;2023-05-07T12:21:05;13.50;99.90
10885;DHT22;5495;53.252;10.390;2023-05-07T12:23:36;13.60;99.90
10885;DHT22;5495;53.252;10.390;2023-05-07T12:26:06;13.60;99.90
10885;DHT22;5495;53.252;10.390;2023-05-07T12:28:37;13.60;99.90
10885;DHT22;5495;53.252;10.390;2023-05-07T12:31:05;13.70;99.90
10885;DHT22;5495;53.252;10.390;2023-05-07T12:33:32;13.80;99.90
10885;DHT22;5495;53.252;10.390;2023-05-07T12:36:04;14.00;99.90
10885;DHT22;5495;53.252;10.390;2023-05-07T12:38:35;14.10;99.90
10885;DHT22;5495;53.252;10.390;2023-05-07T12:41:02;14.60;99.90
10885;DHT22;5495;53.252;10.390;2023-05-07T12:43:31;14.40;99.90
10885;DHT22;5495;53.252;10.390;2023-05-07T12:46:03;14.50;99.90
10885;DHT22;5495;53.252;10.390;2023-05-07T12:48:31;14.60;99.90
10885;DHT22;5495;53.252;10.390;2023-05-07T12:50:59;14.70;99.90
10885;DHT22;5495;53.252;10.390;2023-05-07T12:53:27;14.80;99.90
10885;DHT22;5495;53.252;10.390;2023-05-07T12:55:55;14.90;99.90
10885;DHT22;5495;53.252;10.390;2023-05-07T12:58:25;14.90;99.90
10885;DHT22;5495;53.252;10.390;2023-05-07T13:00:54;15.00;99.90
10885;DHT22;5495;53.252;10.390;2023-05-07T13:03:26;14.90;99.90
10885;DHT22;5495;53.252;10.390;2023-05-07T13:05:55;14.90;99.90
10885;DHT22;5495;53.252;10.390;2023-05-07T13:08:26;15.00;99.90
10885;DHT22;5495;53.252;10.390;2023-05-07T13:10:54;15.00;99.90
10885;DHT22;5495;53.252;10.390;2023-05-07T13:13:20;15.00;99.90
10885;DHT22;5495;53.252;10.390;2023-05-07T13:15:48;15.00;99.90
10885;DHT22;5495;53.252;10.390;2023-05-07T13:18:16;15.10;99.90
10885;DHT22;5495;53.252;10.390;2023-05-07T13:20:43;15.10;99.90
10885;DHT22;5495;53.252;10.390;2023-05-07T13:23:10;15.10;99.90
10885;DHT22;5495;53.252;10.390;2023-05-07T13:25:37;15.10;99.90
10885;DHT22;5495;53.252;10.390;2023-05-07T13:28:04;15.20;99.90
10885;DHT22;5495;53.252;10.390;2023-05-07T13:30:37;15.20;99.90
10885;DHT22;5495;53.252;10.390;2023-05-07T13:33:04;15.30;99.90
10885;DHT22;5495;53.252;10.390;2023-05-07T13:35:32;15.30;99.90
10885;DHT22;5495;53.252;10.390;2023-05-07T13:37:59;15.30;99.90
10885;DHT22;5495;53.252;10.390;2023-05-07T13:40:27;15.40;99.90
10885;DHT22;5495;53.252;10.390;2023-05-07T13:42:56;15.40;99.90
10885;DHT22;5495;53.252;10.390;2023-05-07T13:45:23;15.50;99.90
10885;DHT22;5495;53.252;10.390;2023-05-07T13:47:51;15.50;99.90
10885;DHT22;5495;53.252;10.390;2023-05-07T13:50:18;15.50;99.90
10885;DHT22;5495;53.252;10.390;2023-05-07T13:52:46;15.50;99.90
10885;DHT22;5495;53.252;10.390;2023-05-07T13:55:16;15.50;99.90
10885;DHT22;5495;53.252;10.390;2023-05-07T13:57:43;15.50;99.90
10885;DHT22;5495;53.252;10.390;2023-05-07T14:00:11;15.50;99.90
10885;DHT22;5495;53.252;10.390;2023-05-07T14:02:38;15.40;99.90
10885;DHT22;5495;53.252;10.390;2023-05-07T14:05:06;15.20;99.90
10885;DHT22;5495;53.252;10.390;2023-05-07T14:07:34;15.10;99.90
10885;DHT22;5495;53.252;10.390;2023-05-07T14:10:03;15.10;99.90
10885;DHT22;5495;53.252;10.390;2023-05-07T14:12:31;15.20;99.90
10885;DHT22;5495;53.252;10.390;2023-05-07T14:14:58;15.20;99.90
10885;DHT22;5495;53.252;10.390;2023-05-07T14:17:25;15.30;99.90
10885;DHT22;5495;53.252;10.390;2023-05-07T14:19:52;15.30;99.90
10885;DHT22;5495;53.252;10.390;2023-05-07T14:22:20;15.40;99.90
10885;DHT22;5495;53.252;10.390;2023-05-07T14:24:47;15.30;99.90
10885;DHT22;5495;53.252;10.390;2023-05-07T14:27:15;15.30;99.90
10885;DHT22;5495;53.252;10.390;2023-05-07T14:29:42;15.20;99.90
10885;DHT22;5495;53.252;10.390;2023-05-07T14:32:11;15.40;99.90
10885;DHT22;5495;53.252;10.390;2023-05-07T14:34:37;15.40;99.90
10885;DHT22;5495;53.252;10.390;2023-05-07T14:37:04;15.30;99.90
10885;DHT22;5495;53.252;10.390;2023-05-07T14:39:31;15.40;99.90
10885;DHT22;5495;53.252;10.390;2023-05-07T14:41:58;15.50;99.90
10885;DHT22;5495;53.252;10.390;2023-05-07T14:44:28;15.50;99.90
10885;DHT22;5495;53.252;10.390;2023-05-07T14:46:55;15.60;99.90
10885;DHT22;5495;53.252;10.390;2023-05-07T14:49:22;15.60;99.90
10885;DHT22;5495;53.252;10.390;2023-05-07T14:51:49;15.60;99.90
10885;DHT22;5495;53.252;10.390;2023-05-07T14:54:16;15.80;99.90
10885;DHT22;5495;53.252;10.390;2023-05-07T14:56:45;15.80;99.90
10885;DHT22;5495;53.252;10.390;2023-05-07T14:59:12;15.70;99.90
10885;DHT22;5495;53.252;10.390;2023-05-07T15:01:40;15.60;99.90
10885;DHT22;5495;53.252;10.390;2023-05-07T15:04:11;15.50;99.90
10885;DHT22;5495;53.252;10.390;2023-05-07T15:06:38;15.50;99.90
10885;DHT22;5495;53.252;10.390;2023-05-07T15:09:06;15.50;99.90
10885;DHT22;5495;53.252;10.390;2023-05-07T15:11:33;15.50;99.90
10885;DHT22;5495;53.252;10.390;2023-05-07T15:14:00;15.50;99.90
10885;DHT22;5495;53.252;10.390;2023-05-07T15:16:27;15.50;99.90
10885;DHT22;5495;53.252;10.390;2023-05-07T15:18:55;15.50;99.90
10885;DHT22;5495;53.252;10.390;2023-05-07T15:21:22;15.50;99.90
10885;DHT22;5495;53.252;10.390;2023-05-07T15:23:50;15.50;99.90
10885;DHT22;5495;53.252;10.390;2023-05-07T15:26:17;15.40;99.90
10885;DHT22;5495;53.252;10.390;2023-05-07T15:28:44;15.30;99.90
10885;DHT22;5495;53.252;10.390;2023-05-07T15:31:11;15.40;99.90
10885;DHT22;5495;53.252;10.390;2023-05-07T15:33:37;15.50;99.90
10885;DHT22;5495;53.252;10.390;2023-05-07T15:36:07;15.40;99.90
10885;DHT22;5495;53.252;10.390;2023-05-07T15:38:34;15.40;99.90